createdAt,value
2017-05-22T00:01:29.253Z,14.90
2017-05-22T00:03:56.620Z,14.90
2017-05-22T00:06:23.964Z,14.80
2017-05-22T00:08:51.406Z,14.70
2017-05-22T00:11:18.758Z,14.70
2017-05-22T00:13:46.138Z,14.80
2017-05-22T00:16:13.461Z,14.70
2017-05-22T00:18:40.826Z,14.70
2017-05-22T00:21:08.285Z,14.60
2017-05-22T00:23:35.741Z,14.60
2017-05-22T00:26:03.098Z,14.50
2017-05-22T00:28:30.551Z,14.50
2017-05-22T00:30:57.993Z,14.50
2017-05-22T00:33:25.230Z,14.40
2017-05-22T00:35:52.622Z,14.40
2017-05-22T00:38:19.959Z,14.40
2017-05-22T00:40:47.509Z,14.40
2017-05-22T00:43:14.821Z,14.40
2017-05-22T00:45:42.138Z,14.40
2017-05-22T00:48:09.446Z,14.40
2017-05-22T00:50:36.834Z,14.40
2017-05-22T00:53:04.394Z,14.40
2017-05-22T00:55:31.730Z,14.30
2017-05-22T00:57:58.997Z,14.30
2017-05-22T01:00:26.441Z,14.30
2017-05-22T01:02:54.007Z,14.30
2017-05-22T01:05:21.417Z,14.30
2017-05-22T01:07:48.814Z,14.40
2017-05-22T01:10:16.272Z,14.40
2017-05-22T01:12:43.717Z,14.40
2017-05-22T01:15:11.199Z,14.40
2017-05-22T01:17:38.651Z,14.40
2017-05-22T01:20:06.237Z,14.50
2017-05-22T01:22:33.547Z,14.50
2017-05-22T01:25:00.869Z,14.50
2017-05-22T01:27:28.245Z,14.50
2017-05-22T01:29:55.713Z,14.50
2017-05-22T01:32:30.050Z,14.60
2017-05-22T01:34:57.375Z,14.60
2017-05-22T01:37:24.861Z,14.60
2017-05-22T01:39:52.312Z,14.60
2017-05-22T01:42:19.882Z,14.70
2017-05-22T01:44:47.339Z,14.70
2017-05-22T01:47:14.664Z,14.70
2017-05-22T01:49:42.234Z,14.80
2017-05-22T01:52:09.599Z,14.80
2017-05-22T01:54:37.129Z,14.80
2017-05-22T01:57:04.377Z,14.80
2017-05-22T01:59:31.833Z,14.90
2017-05-22T02:01:59.278Z,14.80
2017-05-22T02:04:26.640Z,14.80
2017-05-22T02:06:53.998Z,14.80
2017-05-22T02:09:21.469Z,14.80
2017-05-22T02:11:48.906Z,14.80
2017-05-22T02:14:16.383Z,14.70
2017-05-22T02:16:43.714Z,14.70
2017-05-22T02:19:11.184Z,14.70
2017-05-22T02:21:38.566Z,14.60
2017-05-22T02:24:06.009Z,14.60
2017-05-22T02:26:33.406Z,14.60
2017-05-22T02:29:00.682Z,14.60
2017-05-22T02:31:28.020Z,14.60
2017-05-22T02:33:55.393Z,14.50
2017-05-22T02:36:22.650Z,14.50
2017-05-22T02:38:50.114Z,14.50
2017-05-22T02:41:17.684Z,14.50
2017-05-22T02:43:45.226Z,14.40
2017-05-22T02:46:12.679Z,14.30
2017-05-22T02:48:39.993Z,14.20
2017-05-22T02:51:07.380Z,14.20
2017-05-22T02:53:35.049Z,14.20
2017-05-22T02:56:02.494Z,14.20
2017-05-22T02:58:29.865Z,14.10
2017-05-22T03:00:57.199Z,14.00
2017-05-22T03:03:24.777Z,14.00
2017-05-22T03:05:52.311Z,14.00
2017-05-22T03:08:19.982Z,14.00
2017-05-22T03:10:47.235Z,14.00
2017-05-22T03:13:14.678Z,13.90
2017-05-22T03:15:41.887Z,13.80
2017-05-22T03:18:09.182Z,13.80
2017-05-22T03:20:36.577Z,13.80
2017-05-22T03:23:03.979Z,13.70
2017-05-22T03:25:31.361Z,13.70
2017-05-22T03:27:58.933Z,13.70
2017-05-22T03:30:26.289Z,13.60
2017-05-22T03:32:53.748Z,13.60
2017-05-22T03:35:21.311Z,13.60
2017-05-22T03:37:48.833Z,13.60
2017-05-22T03:40:16.085Z,13.50
2017-05-22T03:42:43.338Z,13.50
2017-05-22T03:45:10.802Z,13.50
2017-05-22T03:47:38.150Z,13.50
2017-05-22T03:50:05.617Z,13.50
2017-05-22T03:52:32.946Z,13.50
2017-05-22T03:55:00.397Z,13.40
2017-05-22T03:57:27.658Z,13.40
2017-05-22T03:59:54.913Z,13.40
2017-05-22T04:02:22.244Z,13.50
2017-05-22T04:04:49.923Z,13.40
2017-05-22T04:07:17.383Z,13.50
2017-05-22T04:09:44.854Z,13.50
2017-05-22T04:12:12.278Z,13.50
2017-05-22T04:14:39.619Z,13.50
2017-05-22T04:17:06.758Z,13.50
2017-05-22T04:19:34.253Z,13.50
2017-05-22T04:22:01.594Z,13.50
2017-05-22T04:24:28.917Z,13.50
2017-05-22T04:26:56.410Z,13.50
2017-05-22T04:29:23.702Z,13.60
2017-05-22T04:31:51.118Z,13.60
2017-05-22T04:34:18.481Z,13.70
2017-05-22T04:36:45.810Z,13.70
2017-05-22T04:39:12.957Z,13.80
2017-05-22T04:41:47.918Z,13.80
2017-05-22T04:44:15.421Z,13.90
2017-05-22T04:46:42.737Z,13.90
2017-05-22T04:49:10.150Z,14.00
2017-05-22T04:51:37.422Z,14.10
2017-05-22T04:54:04.894Z,14.20
2017-05-22T04:56:32.328Z,14.40
2017-05-22T04:58:59.678Z,14.60
2017-05-22T05:01:27.146Z,14.90
2017-05-22T05:03:54.706Z,15.20
2017-05-22T05:06:22.154Z,15.50
2017-05-22T05:08:49.412Z,15.80
2017-05-22T05:11:16.845Z,16.00
2017-05-22T05:13:44.243Z,16.30
2017-05-22T05:16:11.689Z,16.50
2017-05-22T05:18:39.198Z,16.70
2017-05-22T05:21:06.678Z,16.90
2017-05-22T05:23:34.137Z,17.10
2017-05-22T05:26:01.620Z,17.40
2017-05-22T05:28:29.038Z,17.60
2017-05-22T05:30:56.435Z,17.70
2017-05-22T05:33:23.967Z,17.90
2017-05-22T05:35:51.469Z,18.10
2017-05-22T05:38:18.759Z,18.20
2017-05-22T05:40:46.450Z,18.20
2017-05-22T05:43:13.831Z,18.30
2017-05-22T05:45:41.321Z,18.30
2017-05-22T05:48:08.703Z,18.20
2017-05-22T05:50:36.020Z,18.20
2017-05-22T05:53:03.302Z,18.20
2017-05-22T05:55:30.867Z,18.00
2017-05-22T05:57:58.221Z,18.00
2017-05-22T06:00:25.725Z,18.10
2017-05-22T06:02:53.072Z,18.20
2017-05-22T06:05:20.557Z,18.20
2017-05-22T06:07:47.862Z,18.20
2017-05-22T06:10:15.362Z,18.30
2017-05-22T06:12:42.926Z,18.40
2017-05-22T06:15:10.287Z,18.50
2017-05-22T06:17:37.542Z,18.60
2017-05-22T06:20:04.877Z,18.60
2017-05-22T06:22:32.337Z,18.70
2017-05-22T06:24:59.741Z,18.70
2017-05-22T06:27:27.164Z,18.80
2017-05-22T06:29:54.665Z,18.90
2017-05-22T06:32:22.098Z,18.80
2017-05-22T06:34:49.553Z,18.90
2017-05-22T06:37:17.009Z,18.90
2017-05-22T06:39:44.344Z,19.00
2017-05-22T06:42:11.457Z,19.00
2017-05-22T06:44:38.678Z,19.10
2017-05-22T06:47:05.953Z,19.30
2017-05-22T06:49:33.357Z,19.40
2017-05-22T06:52:00.741Z,19.20
2017-05-22T06:54:28.165Z,19.10
2017-05-22T06:56:55.483Z,19.30
2017-05-22T06:59:22.868Z,19.40
2017-05-22T07:01:50.219Z,19.30
2017-05-22T07:04:17.778Z,19.40
2017-05-22T07:06:45.241Z,19.50
2017-05-22T07:09:12.711Z,19.60
2017-05-22T07:11:40.018Z,19.50
2017-05-22T07:14:07.444Z,19.40
2017-05-22T07:16:34.753Z,19.50
2017-05-22T07:19:02.115Z,19.70
2017-05-22T07:21:29.665Z,19.80
2017-05-22T07:23:56.984Z,19.90
2017-05-22T07:26:24.157Z,20.10
2017-05-22T07:28:51.719Z,20.20
2017-05-22T07:31:19.214Z,20.30
2017-05-22T07:33:53.242Z,20.30
2017-05-22T07:36:20.372Z,20.30
2017-05-22T07:38:47.382Z,20.40
2017-05-22T07:41:14.381Z,20.50
2017-05-22T07:43:41.434Z,20.60
2017-05-22T07:46:08.422Z,20.60
2017-05-22T07:48:35.438Z,20.60
2017-05-22T07:51:02.438Z,20.60
2017-05-22T07:53:29.506Z,20.60
2017-05-22T07:55:56.509Z,20.60
2017-05-22T07:58:23.514Z,20.60
2017-05-22T08:00:50.510Z,20.60
2017-05-22T08:03:17.838Z,20.80
2017-05-22T08:05:45.078Z,20.90
2017-05-22T08:08:12.339Z,20.90
2017-05-22T08:10:39.715Z,21.00
2017-05-22T08:13:07.146Z,21.00
2017-05-22T08:15:34.617Z,21.00
2017-05-22T08:18:01.859Z,21.00
2017-05-22T08:20:29.333Z,21.10
2017-05-22T08:22:56.870Z,21.20
2017-05-22T08:25:24.145Z,21.30
2017-05-22T08:27:51.401Z,21.30
2017-05-22T08:30:18.635Z,21.40
2017-05-22T08:32:46.213Z,21.60
2017-05-22T08:35:13.642Z,21.50
2017-05-22T08:37:41.146Z,21.60
2017-05-22T08:40:08.662Z,21.60
2017-05-22T08:42:36.105Z,21.60
2017-05-22T08:45:03.590Z,21.70
2017-05-22T08:47:31.020Z,21.70
2017-05-22T08:49:58.349Z,21.80
2017-05-22T08:52:25.617Z,21.90
2017-05-22T08:54:53.126Z,22.00
2017-05-22T08:57:20.505Z,22.10
2017-05-22T08:59:47.798Z,22.20
2017-05-22T09:02:15.246Z,22.40
2017-05-22T09:04:42.540Z,22.30
2017-05-22T09:07:09.890Z,22.20
2017-05-22T09:09:37.319Z,22.30
2017-05-22T09:12:04.650Z,22.40
2017-05-22T09:14:32.117Z,22.60
2017-05-22T09:16:59.470Z,22.90
2017-05-22T09:19:26.784Z,23.10
2017-05-22T09:21:54.271Z,23.20
2017-05-22T09:24:21.547Z,23.10
2017-05-22T09:26:48.982Z,22.90
2017-05-22T09:29:16.554Z,22.90
2017-05-22T09:31:43.982Z,22.70
2017-05-22T09:34:11.449Z,22.80
2017-05-22T09:36:38.881Z,22.70
2017-05-22T09:39:06.270Z,23.00
2017-05-22T09:41:33.482Z,23.10
2017-05-22T09:44:07.873Z,23.30
2017-05-22T09:46:34.870Z,23.30
2017-05-22T09:49:01.919Z,23.40
2017-05-22T09:51:28.907Z,23.50
2017-05-22T09:53:55.915Z,23.60
2017-05-22T09:56:22.915Z,23.70
2017-05-22T09:58:49.905Z,24.50
2017-05-22T10:01:16.897Z,24.70
2017-05-22T10:03:43.878Z,24.80
2017-05-22T10:06:10.890Z,24.70
2017-05-22T10:08:37.891Z,25.00
2017-05-22T10:11:05.339Z,26.60
2017-05-22T10:13:32.355Z,28.60
2017-05-22T10:15:59.731Z,30.10
2017-05-22T10:18:27.034Z,31.70
2017-05-22T10:20:54.307Z,33.60
2017-05-22T10:23:21.687Z,34.40
2017-05-22T10:25:48.942Z,34.70
2017-05-22T10:28:16.421Z,35.70
2017-05-22T10:30:43.566Z,36.90
2017-05-22T10:33:10.891Z,38.20
2017-05-22T10:35:38.166Z,39.00
2017-05-22T10:38:05.593Z,39.00
2017-05-22T10:40:32.946Z,36.70
2017-05-22T10:43:00.405Z,35.00
2017-05-22T10:45:27.778Z,34.90
2017-05-22T10:47:55.320Z,35.80
2017-05-22T10:50:22.381Z,35.30
2017-05-22T10:52:49.747Z,34.20
2017-05-22T10:55:17.161Z,32.90
2017-05-22T10:57:44.555Z,32.60
2017-05-22T11:00:11.913Z,33.30
2017-05-22T11:02:39.262Z,33.90
2017-05-22T11:05:06.518Z,34.00
2017-05-22T11:07:33.769Z,34.10
2017-05-22T11:10:00.990Z,34.40
2017-05-22T11:12:28.274Z,34.50
2017-05-22T11:14:55.523Z,34.50
2017-05-22T11:17:22.805Z,33.50
2017-05-22T11:19:50.042Z,33.80
2017-05-22T11:22:17.206Z,34.40
2017-05-22T11:24:44.477Z,34.30
2017-05-22T11:27:11.705Z,33.90
2017-05-22T11:29:38.926Z,34.40
2017-05-22T11:32:06.165Z,34.50
2017-05-22T11:34:33.390Z,34.30
2017-05-22T11:37:00.622Z,34.30
2017-05-22T11:39:27.850Z,34.00
2017-05-22T11:41:55.299Z,33.70
2017-05-22T11:44:22.637Z,33.50
2017-05-22T11:46:50.087Z,34.10
2017-05-22T11:49:17.548Z,35.00
2017-05-22T11:51:44.874Z,35.80
2017-05-22T11:54:12.177Z,36.80
2017-05-22T11:56:39.386Z,36.80
2017-05-22T11:59:06.629Z,36.50
2017-05-22T12:01:33.862Z,37.10
2017-05-22T12:04:01.126Z,36.70
2017-05-22T12:06:28.427Z,36.30
2017-05-22T12:08:55.963Z,36.50
2017-05-22T12:11:23.222Z,36.40
2017-05-22T12:13:50.445Z,36.40
2017-05-22T12:16:17.629Z,35.40
2017-05-22T12:18:44.813Z,34.70
2017-05-22T12:21:12.077Z,34.90
2017-05-22T12:23:39.311Z,35.00
2017-05-22T12:26:06.586Z,35.10
2017-05-22T12:28:33.839Z,35.00
2017-05-22T12:31:01.029Z,35.00
2017-05-22T12:33:28.254Z,34.80
2017-05-22T12:35:55.469Z,35.00
2017-05-22T12:38:22.711Z,35.10
2017-05-22T12:40:49.945Z,34.80
2017-05-22T12:43:17.215Z,34.50
2017-05-22T12:45:44.437Z,34.20
2017-05-22T12:48:11.865Z,34.30
2017-05-22T12:50:39.386Z,34.00
2017-05-22T12:53:06.782Z,33.40
2017-05-22T12:55:34.223Z,32.40
2017-05-22T12:58:01.596Z,31.20
2017-05-22T13:00:28.745Z,30.80
2017-05-22T13:02:56.144Z,30.40
2017-05-22T13:05:23.558Z,29.90
2017-05-22T13:32:50.731Z,27.80
2017-05-22T13:35:17.754Z,28.10
2017-05-22T13:37:44.782Z,28.10
2017-05-22T13:40:11.856Z,28.10
2017-05-22T13:42:39.004Z,28.50
2017-05-22T13:47:34.637Z,28.50
2017-05-22T13:54:57.730Z,28.70
2017-05-22T13:57:24.813Z,28.60
2017-05-22T13:59:51.890Z,28.30
2017-05-22T14:02:19.037Z,28.20
2017-05-22T14:04:45.790Z,28.30
2017-05-22T14:07:13.136Z,28.10
2017-05-22T14:09:40.540Z,28.30
2017-05-22T14:12:07.795Z,28.30
2017-05-22T14:14:35.048Z,27.70
2017-05-22T14:17:02.179Z,28.00
2017-05-22T14:19:29.738Z,28.00
2017-05-22T14:26:53.401Z,27.50
2017-05-22T14:29:20.416Z,27.90
2017-05-22T14:31:48.315Z,28.30
2017-05-22T14:34:15.698Z,28.40
2017-05-22T14:36:42.756Z,28.10
2017-05-22T14:39:09.767Z,28.10
2017-05-22T14:41:36.849Z,27.30
2017-05-22T14:44:04.309Z,27.40
2017-05-22T14:46:31.338Z,27.50
2017-05-22T14:48:59.124Z,27.70
2017-05-22T14:51:26.193Z,27.20
2017-05-22T14:56:21.243Z,27.20
2017-05-22T14:58:49.052Z,26.70
2017-05-22T15:01:16.080Z,26.30
2017-05-22T15:03:42.735Z,26.50
2017-05-22T15:06:09.399Z,26.60
2017-05-22T15:08:36.481Z,26.60
2017-05-22T15:11:03.581Z,26.40
2017-05-22T15:13:30.603Z,26.20
2017-05-22T15:15:57.650Z,25.90
2017-05-22T15:18:24.286Z,26.10
2017-05-22T15:20:51.383Z,26.10
2017-05-22T15:23:18.119Z,26.40
2017-05-22T15:30:41.131Z,26.50
2017-05-22T15:33:08.904Z,26.20
2017-05-22T15:35:36.022Z,26.10
2017-05-22T15:38:03.032Z,26.30
2017-05-22T15:40:30.051Z,26.00
2017-05-22T15:42:57.094Z,26.20
2017-05-22T15:52:48.874Z,27.00
2017-05-22T16:05:07.870Z,26.30
2017-05-22T16:07:36.369Z,26.60
2017-05-22T16:10:03.809Z,26.60
2017-05-22T16:12:30.918Z,26.70
2017-05-22T16:22:22.724Z,26.40
2017-05-22T16:29:45.855Z,26.50
2017-05-22T16:32:12.518Z,26.40
2017-05-22T16:37:07.619Z,26.40
2017-05-22T16:39:34.642Z,26.40
2017-05-22T16:42:02.457Z,26.50
2017-05-22T16:46:57.134Z,26.00
2017-05-22T16:49:24.914Z,26.00
2017-05-22T16:54:20.829Z,26.30
2017-05-22T16:59:15.550Z,26.30
2017-05-22T17:04:10.714Z,26.40
2017-05-22T17:06:37.410Z,26.30
2017-05-22T17:09:04.831Z,26.20
2017-05-22T17:11:31.884Z,26.20
2017-05-22T17:13:59.288Z,26.10
2017-05-22T17:16:26.309Z,25.90
2017-05-22T17:18:53.362Z,25.90
2017-05-22T17:21:20.484Z,25.70
2017-05-22T17:23:47.502Z,25.70
2017-05-22T17:26:14.550Z,25.70
2017-05-22T17:31:09.958Z,25.30
2017-05-22T17:33:36.989Z,25.00
2017-05-22T17:36:04.193Z,25.00
2017-05-22T17:38:30.959Z,25.00
2017-05-22T17:40:58.414Z,25.00
2017-05-22T17:43:25.079Z,24.80
2017-05-22T17:45:52.194Z,24.60
2017-05-22T17:48:19.616Z,24.60
2017-05-22T17:53:14.674Z,24.40
2017-05-22T17:55:41.690Z,24.60
2017-05-22T18:03:04.403Z,24.70
2017-05-22T18:05:31.067Z,24.90
2017-05-22T18:07:58.091Z,24.90
2017-05-22T18:10:25.112Z,25.00
2017-05-22T18:12:52.533Z,25.10
2017-05-22T18:15:19.546Z,25.00
2017-05-22T18:17:46.208Z,24.90
2017-05-22T18:20:13.235Z,24.60
2017-05-22T18:22:39.948Z,24.40
2017-05-22T18:25:06.964Z,24.30
2017-05-22T18:27:34.078Z,24.40
2017-05-22T18:30:01.088Z,24.10
2017-05-22T18:37:24.103Z,24.50
2017-05-22T18:39:50.771Z,24.50
2017-05-22T18:44:45.804Z,24.50
2017-05-22T18:47:12.822Z,24.40
2017-05-22T18:49:39.895Z,24.10
2017-05-22T18:52:07.079Z,24.20
2017-05-22T18:54:33.856Z,24.20
2017-05-22T18:57:01.755Z,24.30
2017-05-22T18:59:28.812Z,24.30
2017-05-22T19:01:56.272Z,24.20
2017-05-22T19:04:24.555Z,24.20
2017-05-22T19:09:20.239Z,24.10
2017-05-22T19:11:47.310Z,24.10
2017-05-22T19:14:14.407Z,24.00
2017-05-22T19:16:41.727Z,23.90
2017-05-22T19:19:09.117Z,23.80
2017-05-22T19:21:37.147Z,23.80
2017-05-22T19:24:04.850Z,23.60
2017-05-22T19:26:32.567Z,23.60
2017-05-22T19:29:00.851Z,23.70
2017-05-22T19:43:49.118Z,23.50
2017-05-22T19:46:16.617Z,23.40
2017-05-22T19:53:39.310Z,23.20
2017-05-22T19:56:07.079Z,23.20
2017-05-22T20:01:02.102Z,23.10
2017-05-22T20:08:24.877Z,22.90
2017-05-22T20:10:59.543Z,22.80
2017-05-22T20:13:26.345Z,22.90
2017-05-22T20:16:00.347Z,22.80
2017-05-22T20:20:55.287Z,22.50
2017-05-22T20:23:23.089Z,22.50
2017-05-22T20:35:42.774Z,22.40
2017-05-22T20:40:37.814Z,22.20
2017-05-22T20:43:05.294Z,22.20
2017-05-22T20:45:33.138Z,22.10
2017-05-22T20:52:55.928Z,22.00
2017-05-22T21:05:15.266Z,21.70
2017-05-22T21:07:41.914Z,21.70
2017-05-22T21:10:09.308Z,21.60
2017-05-22T21:12:36.418Z,21.60
2017-05-22T21:15:03.830Z,21.50
2017-05-22T21:20:00.346Z,21.50
2017-05-22T21:22:27.438Z,21.40
2017-05-22T21:37:14.709Z,21.30
2017-05-22T21:39:42.121Z,21.20
2017-05-22T21:42:09.291Z,21.20
2017-05-22T21:44:36.721Z,21.20
2017-05-22T21:47:04.485Z,21.20
2017-05-22T21:49:31.145Z,21.20
2017-05-22T21:54:26.182Z,21.20
2017-05-22T21:56:53.594Z,21.20
2017-05-22T22:01:48.712Z,21.20
2017-05-22T22:04:16.093Z,21.10
2017-05-22T22:06:43.497Z,21.10
2017-05-22T22:11:38.182Z,21.10
2017-05-22T22:14:05.590Z,21.10
2017-05-22T22:19:00.585Z,21.10
2017-05-22T22:21:27.606Z,21.10
2017-05-22T22:23:54.625Z,21.10
2017-05-22T22:26:22.133Z,21.00
2017-05-22T22:28:49.192Z,21.00
2017-05-22T22:33:44.269Z,20.90
2017-05-22T22:36:11.434Z,20.90
2017-05-22T22:38:38.854Z,20.90
2017-05-22T22:41:05.883Z,20.80
2017-05-22T22:43:32.895Z,20.80
2017-05-22T22:45:59.907Z,20.80
2017-05-22T22:50:54.953Z,20.60
2017-05-22T22:53:21.966Z,20.60
2017-05-22T22:55:48.972Z,20.60
2017-05-22T22:58:15.636Z,20.60
2017-05-22T23:00:42.276Z,20.60
2017-05-22T23:05:37.335Z,20.10
2017-05-22T23:10:32.398Z,20.40
2017-05-22T23:13:00.178Z,20.40
2017-05-22T23:15:26.822Z,20.30
2017-05-22T23:17:53.454Z,20.30
2017-05-22T23:22:48.088Z,20.40
2017-05-22T23:25:15.103Z,20.50
2017-05-22T23:27:42.129Z,20.40
2017-05-22T23:30:09.148Z,20.50
2017-05-22T23:32:36.564Z,20.40
2017-05-22T23:37:31.574Z,20.40
2017-05-22T23:39:58.609Z,20.40
2017-05-22T23:44:53.650Z,20.30
2017-05-22T23:47:20.701Z,20.30
2017-05-22T23:49:48.170Z,20.30
2017-05-22T23:54:43.172Z,20.30
2017-05-22T23:59:38.224Z,20.60
